sensor_id;sensor_type;location;lat;lon;timestamp;P1;durP1;ratioP1;P2;durP2;ratioP2
62582;SDS011;48641;51.676;5.808;2023-02-03T00:00:44;3.50;;;1.00;;
62582;SDS011;48641;51.676;5.808;2023-02-03T00:03:11;3.90;;;1.23;;
62582;SDS011;48641;51.676;5.808;2023-02-03T00:05:36;3.55;;;1.20;;
62582;SDS011;48641;51.676;5.808;2023-02-03T00:08:03;4.72;;;1.33;;
62582;SDS011;48641;51.676;5.808;2023-02-03T00:10:32;3.40;;;1.05;;
62582;SDS011;48641;51.676;5.808;2023-02-03T00:13:01;2.95;;;1.08;;
62582;SDS011;48641;51.676;5.808;2023-02-03T00:15:26;2.25;;;1.10;;
62582;SDS011;48641;51.676;5.808;2023-02-03T00:17:52;4.25;;;1.20;;
62582;SDS011;48641;51.676;5.808;2023-02-03T00:20:18;3.63;;;1.10;;
62582;SDS011;48641;51.676;5.808;2023-02-03T00:22:44;5.20;;;1.25;;
62582;SDS011;48641;51.676;5.808;2023-02-03T00:25:09;4.63;;;1.63;;
62582;SDS011;48641;51.676;5.808;2023-02-03T00:27:35;4.35;;;1.15;;
62582;SDS011;48641;51.676;5.808;2023-02-03T00:30:00;3.42;;;1.10;;
62582;SDS011;48641;51.676;5.808;2023-02-03T00:32:26;4.80;;;1.20;;
62582;SDS011;48641;51.676;5.808;2023-02-03T00:34:52;5.60;;;1.00;;
62582;SDS011;48641;51.676;5.808;2023-02-03T00:37:17;4.25;;;1.20;;
62582;SDS011;48641;51.676;5.808;2023-02-03T00:39:43;2.55;;;1.30;;
62582;SDS011;48641;51.676;5.808;2023-02-03T00:42:08;3.17;;;1.17;;
62582;SDS011;48641;51.676;5.808;2023-02-03T00:44:34;2.55;;;0.98;;
62582;SDS011;48641;51.676;5.808;2023-02-03T00:46:59;6.10;;;1.23;;
62582;SDS011;48641;51.676;5.808;2023-02-03T00:49:25;5.00;;;1.05;;
62582;SDS011;48641;51.676;5.808;2023-02-03T00:51:51;2.70;;;0.95;;
62582;SDS011;48641;51.676;5.808;2023-02-03T00:54:17;3.03;;;1.00;;
62582;SDS011;48641;51.676;5.808;2023-02-03T00:56:42;4.50;;;1.17;;
62582;SDS011;48641;51.676;5.808;2023-02-03T00:59:08;4.13;;;1.25;;
62582;SDS011;48641;51.676;5.808;2023-02-03T01:01:34;3.67;;;1.30;;
62582;SDS011;48641;51.676;5.808;2023-02-03T01:03:59;3.00;;;1.00;;
62582;SDS011;48641;51.676;5.808;2023-02-03T01:06:25;4.28;;;1.30;;
62582;SDS011;48641;51.676;5.808;2023-02-03T01:08:51;5.47;;;1.35;;
62582;SDS011;48641;51.676;5.808;2023-02-03T01:11:18;4.57;;;1.40;;
62582;SDS011;48641;51.676;5.808;2023-02-03T01:13:48;4.25;;;1.27;;
62582;SDS011;48641;51.676;5.808;2023-02-03T01:16:16;2.63;;;0.90;;
62582;SDS011;48641;51.676;5.808;2023-02-03T01:18:43;3.42;;;1.08;;
62582;SDS011;48641;51.676;5.808;2023-02-03T01:21:11;3.47;;;1.00;;
62582;SDS011;48641;51.676;5.808;2023-02-03T01:23:38;6.07;;;1.15;;
62582;SDS011;48641;51.676;5.808;2023-02-03T01:26:04;3.50;;;1.10;;
62582;SDS011;48641;51.676;5.808;2023-02-03T01:28:34;2.95;;;1.00;;
62582;SDS011;48641;51.676;5.808;2023-02-03T01:31:14;2.85;;;1.00;;
62582;SDS011;48641;51.676;5.808;2023-02-03T01:33:44;3.28;;;0.98;;
62582;SDS011;48641;51.676;5.808;2023-02-03T01:36:12;2.30;;;1.00;;
62582;SDS011;48641;51.676;5.808;2023-02-03T01:38:39;3.42;;;1.08;;
62582;SDS011;48641;51.676;5.808;2023-02-03T01:41:06;3.00;;;1.05;;
62582;SDS011;48641;51.676;5.808;2023-02-03T01:43:35;3.83;;;1.00;;
62582;SDS011;48641;51.676;5.808;2023-02-03T01:46:06;3.15;;;1.38;;
62582;SDS011;48641;51.676;5.808;2023-02-03T01:48:41;3.85;;;0.90;;
62582;SDS011;48641;51.676;5.808;2023-02-03T01:51:07;3.58;;;1.10;;
62582;SDS011;48641;51.676;5.808;2023-02-03T01:53:32;3.35;;;0.90;;
62582;SDS011;48641;51.676;5.808;2023-02-03T01:55:58;4.05;;;1.10;;
62582;SDS011;48641;51.676;5.808;2023-02-03T01:58:28;3.72;;;0.90;;
62582;SDS011;48641;51.676;5.808;2023-02-03T02:00:58;4.72;;;1.20;;
62582;SDS011;48641;51.676;5.808;2023-02-03T02:03:25;3.38;;;0.80;;
62582;SDS011;48641;51.676;5.808;2023-02-03T02:06:05;2.03;;;0.90;;
62582;SDS011;48641;51.676;5.808;2023-02-03T02:08:32;2.22;;;0.90;;
62582;SDS011;48641;51.676;5.808;2023-02-03T02:10:59;2.88;;;1.15;;
62582;SDS011;48641;51.676;5.808;2023-02-03T02:13:26;2.10;;;0.80;;
62582;SDS011;48641;51.676;5.808;2023-02-03T02:29:57;3.13;;;1.05;;
62582;SDS011;48641;51.676;5.808;2023-02-03T02:40:33;3.55;;;1.00;;
62582;SDS011;48641;51.676;5.808;2023-02-03T02:48:40;4.85;;;1.08;;
62582;SDS011;48641;51.676;5.808;2023-02-03T02:51:08;1.95;;;0.93;;
62582;SDS011;48641;51.676;5.808;2023-02-03T02:53:37;2.42;;;0.88;;
62582;SDS011;48641;51.676;5.808;2023-02-03T02:56:06;2.30;;;0.85;;
62582;SDS011;48641;51.676;5.808;2023-02-03T02:58:34;3.10;;;0.90;;
62582;SDS011;48641;51.676;5.808;2023-02-03T03:01:01;2.78;;;0.90;;
62582;SDS011;48641;51.676;5.808;2023-02-03T03:03:27;4.10;;;1.00;;
62582;SDS011;48641;51.676;5.808;2023-02-03T03:05:59;4.75;;;1.10;;
62582;SDS011;48641;51.676;5.808;2023-02-03T03:08:30;2.13;;;0.80;;
62582;SDS011;48641;51.676;5.808;2023-02-03T03:11:08;3.50;;;0.80;;
62582;SDS011;48641;51.676;5.808;2023-02-03T03:13:35;2.67;;;0.90;;
62582;SDS011;48641;51.676;5.808;2023-02-03T03:16:06;3.03;;;0.80;;
62582;SDS011;48641;51.676;5.808;2023-02-03T03:18:39;3.17;;;0.90;;
62582;SDS011;48641;51.676;5.808;2023-02-03T03:21:08;2.67;;;0.80;;
62582;SDS011;48641;51.676;5.808;2023-02-03T03:23:40;2.47;;;0.80;;
62582;SDS011;48641;51.676;5.808;2023-02-03T03:26:10;3.13;;;0.88;;
62582;SDS011;48641;51.676;5.808;2023-02-03T03:29:01;2.47;;;0.80;;
62582;SDS011;48641;51.676;5.808;2023-02-03T03:31:37;2.13;;;0.85;;
62582;SDS011;48641;51.676;5.808;2023-02-03T03:34:03;4.05;;;0.90;;
62582;SDS011;48641;51.676;5.808;2023-02-03T03:36:36;3.38;;;0.88;;
62582;SDS011;48641;51.676;5.808;2023-02-03T03:39:18;2.88;;;0.80;;
62582;SDS011;48641;51.676;5.808;2023-02-03T03:44:42;3.53;;;1.55;;
62582;SDS011;48641;51.676;5.808;2023-02-03T03:47:15;3.58;;;1.80;;
62582;SDS011;48641;51.676;5.808;2023-02-03T03:49:48;2.42;;;0.73;;
62582;SDS011;48641;51.676;5.808;2023-02-03T03:52:17;2.42;;;0.88;;
62582;SDS011;48641;51.676;5.808;2023-02-03T03:54:48;5.10;;;0.88;;
62582;SDS011;48641;51.676;5.808;2023-02-03T03:57:19;2.75;;;0.70;;
62582;SDS011;48641;51.676;5.808;2023-02-03T03:59:52;2.30;;;0.80;;
62582;SDS011;48641;51.676;5.808;2023-02-03T04:02:18;3.13;;;0.95;;
62582;SDS011;48641;51.676;5.808;2023-02-03T04:04:46;2.60;;;0.75;;
62582;SDS011;48641;51.676;5.808;2023-02-03T04:07:12;2.55;;;0.90;;
62582;SDS011;48641;51.676;5.808;2023-02-03T04:09:38;3.15;;;1.00;;
62582;SDS011;48641;51.676;5.808;2023-02-03T04:12:08;2.90;;;0.77;;
62582;SDS011;48641;51.676;5.808;2023-02-03T04:14:45;2.67;;;0.80;;
62582;SDS011;48641;51.676;5.808;2023-02-03T04:17:10;2.95;;;0.77;;
62582;SDS011;48641;51.676;5.808;2023-02-03T04:19:36;2.20;;;0.80;;
62582;SDS011;48641;51.676;5.808;2023-02-03T04:22:02;3.55;;;0.77;;
62582;SDS011;48641;51.676;5.808;2023-02-03T04:24:27;2.00;;;0.70;;
62582;SDS011;48641;51.676;5.808;2023-02-03T04:26:53;4.00;;;0.80;;
62582;SDS011;48641;51.676;5.808;2023-02-03T04:29:19;2.70;;;0.80;;
62582;SDS011;48641;51.676;5.808;2023-02-03T04:31:44;2.53;;;0.90;;
62582;SDS011;48641;51.676;5.808;2023-02-03T04:34:10;2.47;;;0.70;;
62582;SDS011;48641;51.676;5.808;2023-02-03T04:36:36;2.60;;;0.80;;
62582;SDS011;48641;51.676;5.808;2023-02-03T04:39:01;3.53;;;0.75;;
62582;SDS011;48641;51.676;5.808;2023-02-03T04:41:27;5.05;;;0.90;;
62582;SDS011;48641;51.676;5.808;2023-02-03T04:43:52;1.40;;;0.65;;
62582;SDS011;48641;51.676;5.808;2023-02-03T04:46:18;2.40;;;0.70;;
62582;SDS011;48641;51.676;5.808;2023-02-03T04:48:44;2.55;;;0.80;;
62582;SDS011;48641;51.676;5.808;2023-02-03T04:51:09;2.83;;;0.90;;
62582;SDS011;48641;51.676;5.808;2023-02-03T04:53:35;2.47;;;0.80;;
62582;SDS011;48641;51.676;5.808;2023-02-03T04:56:01;2.67;;;0.80;;
62582;SDS011;48641;51.676;5.808;2023-02-03T04:58:27;2.25;;;0.80;;
62582;SDS011;48641;51.676;5.808;2023-02-03T05:00:52;3.03;;;0.90;;
62582;SDS011;48641;51.676;5.808;2023-02-03T05:03:18;4.57;;;1.10;;
62582;SDS011;48641;51.676;5.808;2023-02-03T05:05:44;1.80;;;0.70;;
62582;SDS011;48641;51.676;5.808;2023-02-03T05:08:10;3.17;;;0.90;;
62582;SDS011;48641;51.676;5.808;2023-02-03T05:10:36;1.42;;;0.80;;
62582;SDS011;48641;51.676;5.808;2023-02-03T05:13:01;3.88;;;0.80;;
62582;SDS011;48641;51.676;5.808;2023-02-03T05:15:27;3.22;;;0.82;;
62582;SDS011;48641;51.676;5.808;2023-02-03T05:17:53;2.35;;;0.70;;
62582;SDS011;48641;51.676;5.808;2023-02-03T05:20:19;2.03;;;0.80;;
62582;SDS011;48641;51.676;5.808;2023-02-03T05:22:46;2.97;;;0.90;;
62582;SDS011;48641;51.676;5.808;2023-02-03T05:25:12;3.65;;;0.80;;
62582;SDS011;48641;51.676;5.808;2023-02-03T05:27:38;2.53;;;1.00;;
62582;SDS011;48641;51.676;5.808;2023-02-03T05:30:05;3.20;;;0.75;;
62582;SDS011;48641;51.676;5.808;2023-02-03T05:32:32;1.77;;;0.60;;
62582;SDS011;48641;51.676;5.808;2023-02-03T05:34:57;2.10;;;0.75;;
62582;SDS011;48641;51.676;5.808;2023-02-03T05:37:23;2.08;;;0.68;;
62582;SDS011;48641;51.676;5.808;2023-02-03T05:39:48;2.10;;;0.70;;
62582;SDS011;48641;51.676;5.808;2023-02-03T05:42:14;2.45;;;0.77;;
62582;SDS011;48641;51.676;5.808;2023-02-03T05:44:40;2.15;;;0.68;;
62582;SDS011;48641;51.676;5.808;2023-02-03T05:47:05;3.22;;;0.88;;
62582;SDS011;48641;51.676;5.808;2023-02-03T05:49:31;1.60;;;0.60;;
62582;SDS011;48641;51.676;5.808;2023-02-03T05:51:57;2.25;;;0.93;;
62582;SDS011;48641;51.676;5.808;2023-02-03T05:54:22;1.65;;;0.60;;
62582;SDS011;48641;51.676;5.808;2023-02-03T05:56:48;3.75;;;0.70;;
62582;SDS011;48641;51.676;5.808;2023-02-03T05:59:13;2.38;;;0.70;;
62582;SDS011;48641;51.676;5.808;2023-02-03T06:01:39;2.05;;;0.70;;
62582;SDS011;48641;51.676;5.808;2023-02-03T06:04:05;4.38;;;0.70;;
62582;SDS011;48641;51.676;5.808;2023-02-03T06:06:30;3.45;;;0.90;;
62582;SDS011;48641;51.676;5.808;2023-02-03T06:08:59;2.40;;;0.77;;
62582;SDS011;48641;51.676;5.808;2023-02-03T06:11:26;2.53;;;0.70;;
62582;SDS011;48641;51.676;5.808;2023-02-03T06:13:52;2.80;;;0.80;;
62582;SDS011;48641;51.676;5.808;2023-02-03T06:16:19;2.30;;;0.70;;
62582;SDS011;48641;51.676;5.808;2023-02-03T06:18:45;1.67;;;0.60;;
62582;SDS011;48641;51.676;5.808;2023-02-03T06:21:11;1.80;;;0.70;;
62582;SDS011;48641;51.676;5.808;2023-02-03T06:23:37;4.65;;;0.70;;
62582;SDS011;48641;51.676;5.808;2023-02-03T06:26:03;3.30;;;0.70;;
62582;SDS011;48641;51.676;5.808;2023-02-03T06:28:28;2.83;;;0.80;;
62582;SDS011;48641;51.676;5.808;2023-02-03T06:30:54;2.50;;;0.80;;
62582;SDS011;48641;51.676;5.808;2023-02-03T06:33:20;2.72;;;0.70;;
62582;SDS011;48641;51.676;5.808;2023-02-03T06:35:45;1.50;;;0.60;;
62582;SDS011;48641;51.676;5.808;2023-02-03T06:38:11;1.88;;;0.70;;
62582;SDS011;48641;51.676;5.808;2023-02-03T06:40:37;2.85;;;0.73;;
62582;SDS011;48641;51.676;5.808;2023-02-03T06:43:02;1.75;;;0.77;;
62582;SDS011;48641;51.676;5.808;2023-02-03T06:45:28;2.47;;;0.60;;
62582;SDS011;48641;51.676;5.808;2023-02-03T06:47:54;2.75;;;0.80;;
62582;SDS011;48641;51.676;5.808;2023-02-03T06:50:20;1.77;;;0.60;;
62582;SDS011;48641;51.676;5.808;2023-02-03T06:52:45;1.80;;;0.55;;
62582;SDS011;48641;51.676;5.808;2023-02-03T06:55:13;3.07;;;0.60;;
62582;SDS011;48641;51.676;5.808;2023-02-03T06:57:46;1.48;;;0.60;;
62582;SDS011;48641;51.676;5.808;2023-02-03T07:00:12;4.68;;;0.90;;
62582;SDS011;48641;51.676;5.808;2023-02-03T07:02:40;4.28;;;0.82;;
62582;SDS011;48641;51.676;5.808;2023-02-03T07:05:06;1.55;;;0.47;;
62582;SDS011;48641;51.676;5.808;2023-02-03T07:07:32;2.70;;;0.75;;
62582;SDS011;48641;51.676;5.808;2023-02-03T07:09:59;3.60;;;0.82;;
62582;SDS011;48641;51.676;5.808;2023-02-03T07:12:25;3.88;;;0.60;;
62582;SDS011;48641;51.676;5.808;2023-02-03T07:14:50;4.18;;;0.80;;
62582;SDS011;48641;51.676;5.808;2023-02-03T07:17:16;5.32;;;0.73;;
62582;SDS011;48641;51.676;5.808;2023-02-03T07:19:41;3.20;;;0.70;;
62582;SDS011;48641;51.676;5.808;2023-02-03T07:22:09;3.25;;;0.65;;
62582;SDS011;48641;51.676;5.808;2023-02-03T07:24:35;3.60;;;0.95;;
62582;SDS011;48641;51.676;5.808;2023-02-03T07:27:00;2.38;;;0.70;;
62582;SDS011;48641;51.676;5.808;2023-02-03T07:29:26;1.58;;;0.70;;
62582;SDS011;48641;51.676;5.808;2023-02-03T07:31:52;3.75;;;0.95;;
62582;SDS011;48641;51.676;5.808;2023-02-03T07:34:17;3.53;;;0.93;;
62582;SDS011;48641;51.676;5.808;2023-02-03T07:36:43;5.75;;;1.00;;
62582;SDS011;48641;51.676;5.808;2023-02-03T07:39:09;2.75;;;0.90;;
62582;SDS011;48641;51.676;5.808;2023-02-03T07:41:34;4.10;;;0.85;;
62582;SDS011;48641;51.676;5.808;2023-02-03T07:44:00;4.53;;;0.90;;
62582;SDS011;48641;51.676;5.808;2023-02-03T07:46:26;5.32;;;1.20;;
62582;SDS011;48641;51.676;5.808;2023-02-03T07:48:51;4.30;;;1.10;;
62582;SDS011;48641;51.676;5.808;2023-02-03T07:51:17;3.60;;;1.08;;
62582;SDS011;48641;51.676;5.808;2023-02-03T07:53:42;4.75;;;1.15;;
62582;SDS011;48641;51.676;5.808;2023-02-03T07:56:08;5.30;;;1.10;;
62582;SDS011;48641;51.676;5.808;2023-02-03T07:58:35;6.57;;;1.15;;
62582;SDS011;48641;51.676;5.808;2023-02-03T08:01:08;7.85;;;1.50;;
62582;SDS011;48641;51.676;5.808;2023-02-03T08:03:35;71.28;;;7.18;;
62582;SDS011;48641;51.676;5.808;2023-02-03T08:06:00;57.42;;;5.88;;
62582;SDS011;48641;51.676;5.808;2023-02-03T08:08:26;32.00;;;4.70;;
62582;SDS011;48641;51.676;5.808;2023-02-03T08:10:53;42.45;;;4.70;;
62582;SDS011;48641;51.676;5.808;2023-02-03T08:13:20;36.70;;;4.10;;
62582;SDS011;48641;51.676;5.808;2023-02-03T08:15:46;26.95;;;3.80;;
62582;SDS011;48641;51.676;5.808;2023-02-03T08:18:11;35.17;;;4.63;;
62582;SDS011;48641;51.676;5.808;2023-02-03T08:20:37;29.17;;;4.03;;
62582;SDS011;48641;51.676;5.808;2023-02-03T08:23:03;32.03;;;3.92;;
62582;SDS011;48641;51.676;5.808;2023-02-03T08:25:28;23.85;;;2.53;;
62582;SDS011;48641;51.676;5.808;2023-02-03T08:27:54;23.65;;;3.80;;
62582;SDS011;48641;51.676;5.808;2023-02-03T08:30:20;19.70;;;2.92;;
62582;SDS011;48641;51.676;5.808;2023-02-03T08:32:47;16.55;;;2.63;;
62582;SDS011;48641;51.676;5.808;2023-02-03T08:35:13;23.17;;;3.67;;
62582;SDS011;48641;51.676;5.808;2023-02-03T08:37:39;14.18;;;2.55;;
62582;SDS011;48641;51.676;5.808;2023-02-03T08:40:05;14.48;;;2.75;;
62582;SDS011;48641;51.676;5.808;2023-02-03T08:42:31;20.55;;;3.35;;
62582;SDS011;48641;51.676;5.808;2023-02-03T08:44:57;22.42;;;3.90;;
62582;SDS011;48641;51.676;5.808;2023-02-03T08:47:23;18.08;;;2.90;;
62582;SDS011;48641;51.676;5.808;2023-02-03T08:49:49;18.00;;;2.88;;
62582;SDS011;48641;51.676;5.808;2023-02-03T08:52:14;14.45;;;2.70;;
62582;SDS011;48641;51.676;5.808;2023-02-03T08:54:40;17.20;;;2.50;;
62582;SDS011;48641;51.676;5.808;2023-02-03T08:57:06;18.13;;;2.55;;
62582;SDS011;48641;51.676;5.808;2023-02-03T08:59:32;11.95;;;2.63;;
62582;SDS011;48641;51.676;5.808;2023-02-03T09:02:05;14.18;;;2.72;;
62582;SDS011;48641;51.676;5.808;2023-02-03T09:04:32;12.80;;;2.67;;
62582;SDS011;48641;51.676;5.808;2023-02-03T09:06:58;13.75;;;2.83;;
62582;SDS011;48641;51.676;5.808;2023-02-03T09:09:25;12.80;;;2.70;;
62582;SDS011;48641;51.676;5.808;2023-02-03T09:11:51;13.38;;;2.55;;
62582;SDS011;48641;51.676;5.808;2023-02-03T09:14:19;13.80;;;2.97;;
62582;SDS011;48641;51.676;5.808;2023-02-03T09:16:44;15.77;;;2.40;;
62582;SDS011;48641;51.676;5.808;2023-02-03T09:19:10;10.80;;;2.10;;
62582;SDS011;48641;51.676;5.808;2023-02-03T09:21:37;11.35;;;2.10;;
62582;SDS011;48641;51.676;5.808;2023-02-03T09:24:03;11.02;;;2.22;;
62582;SDS011;48641;51.676;5.808;2023-02-03T09:26:28;9.82;;;2.45;;
62582;SDS011;48641;51.676;5.808;2023-02-03T09:28:54;13.48;;;2.60;;
62582;SDS011;48641;51.676;5.808;2023-02-03T09:31:20;11.75;;;2.33;;
62582;SDS011;48641;51.676;5.808;2023-02-03T09:33:45;8.95;;;2.17;;
62582;SDS011;48641;51.676;5.808;2023-02-03T09:36:11;11.68;;;1.98;;
62582;SDS011;48641;51.676;5.808;2023-02-03T09:38:37;9.88;;;2.22;;
62582;SDS011;48641;51.676;5.808;2023-02-03T09:46:20;9.68;;;2.00;;
62582;SDS011;48641;51.676;5.808;2023-02-03T09:48:59;12.02;;;2.25;;
62582;SDS011;48641;51.676;5.808;2023-02-03T09:51:33;8.13;;;1.90;;
62582;SDS011;48641;51.676;5.808;2023-02-03T09:54:18;9.18;;;2.28;;
62582;SDS011;48641;51.676;5.808;2023-02-03T09:57:10;9.25;;;2.25;;
62582;SDS011;48641;51.676;5.808;2023-02-03T09:59:41;10.57;;;2.05;;
62582;SDS011;48641;51.676;5.808;2023-02-03T10:05:02;7.55;;;2.10;;
62582;SDS011;48641;51.676;5.808;2023-02-03T10:13:12;8.23;;;2.20;;
62582;SDS011;48641;51.676;5.808;2023-02-03T10:16:00;7.07;;;1.75;;
62582;SDS011;48641;51.676;5.808;2023-02-03T10:18:51;10.07;;;1.90;;
62582;SDS011;48641;51.676;5.808;2023-02-03T10:22:05;8.60;;;2.10;;
62582;SDS011;48641;51.676;5.808;2023-02-03T10:24:14;6.07;;;1.33;;
62582;SDS011;48641;51.676;5.808;2023-02-03T10:26:44;6.95;;;1.73;;
62582;SDS011;48641;51.676;5.808;2023-02-03T10:31:48;5.65;;;1.85;;
62582;SDS011;48641;51.676;5.808;2023-02-03T10:34:14;6.75;;;1.58;;
62582;SDS011;48641;51.676;5.808;2023-02-03T10:36:45;8.80;;;1.92;;
62582;SDS011;48641;51.676;5.808;2023-02-03T10:39:18;7.57;;;1.85;;
62582;SDS011;48641;51.676;5.808;2023-02-03T10:42:02;7.38;;;1.77;;
62582;SDS011;48641;51.676;5.808;2023-02-03T10:44:35;5.30;;;1.55;;
62582;SDS011;48641;51.676;5.808;2023-02-03T10:47:19;7.45;;;1.65;;
62582;SDS011;48641;51.676;5.808;2023-02-03T10:50:13;6.32;;;1.58;;
62582;SDS011;48641;51.676;5.808;2023-02-03T10:52:41;6.70;;;1.48;;
62582;SDS011;48641;51.676;5.808;2023-02-03T10:55:07;6.80;;;1.50;;
62582;SDS011;48641;51.676;5.808;2023-02-03T11:06:09;7.77;;;1.70;;
62582;SDS011;48641;51.676;5.808;2023-02-03T11:08:38;6.57;;;1.50;;
62582;SDS011;48641;51.676;5.808;2023-02-03T11:11:09;5.63;;;1.30;;
62582;SDS011;48641;51.676;5.808;2023-02-03T11:13:51;5.73;;;2.00;;
62582;SDS011;48641;51.676;5.808;2023-02-03T11:16:26;5.85;;;1.77;;
62582;SDS011;48641;51.676;5.808;2023-02-03T11:29:06;6.80;;;1.55;;
62582;SDS011;48641;51.676;5.808;2023-02-03T11:31:41;5.65;;;1.90;;
62582;SDS011;48641;51.676;5.808;2023-02-03T11:34:16;5.65;;;1.75;;
62582;SDS011;48641;51.676;5.808;2023-02-03T11:36:48;3.75;;;1.38;;
62582;SDS011;48641;51.676;5.808;2023-02-03T11:39:27;6.20;;;1.52;;
62582;SDS011;48641;51.676;5.808;2023-02-03T11:41:59;5.15;;;1.27;;
62582;SDS011;48641;51.676;5.808;2023-02-03T11:44:26;2.92;;;1.10;;
62582;SDS011;48641;51.676;5.808;2023-02-03T11:47:03;4.80;;;1.30;;
62582;SDS011;48641;51.676;5.808;2023-02-03T11:49:46;5.77;;;1.53;;
62582;SDS011;48641;51.676;5.808;2023-02-03T12:09:27;5.10;;;1.20;;
62582;SDS011;48641;51.676;5.808;2023-02-03T12:12:19;4.82;;;1.20;;
62582;SDS011;48641;51.676;5.808;2023-02-03T12:20:59;9.40;;;2.20;;
62582;SDS011;48641;51.676;5.808;2023-02-03T12:23:44;9.88;;;2.40;;
62582;SDS011;48641;51.676;5.808;2023-02-03T12:26:29;9.40;;;2.53;;
62582;SDS011;48641;51.676;5.808;2023-02-03T12:29:09;15.80;;;2.60;;
62582;SDS011;48641;51.676;5.808;2023-02-03T12:34:27;15.48;;;2.75;;
62582;SDS011;48641;51.676;5.808;2023-02-03T12:37:16;9.63;;;2.13;;
62582;SDS011;48641;51.676;5.808;2023-02-03T12:40:22;9.35;;;2.13;;
62582;SDS011;48641;51.676;5.808;2023-02-03T12:42:49;5.75;;;1.83;;
62582;SDS011;48641;51.676;5.808;2023-02-03T12:45:29;9.00;;;1.80;;
62582;SDS011;48641;51.676;5.808;2023-02-03T12:50:32;8.38;;;1.83;;
62582;SDS011;48641;51.676;5.808;2023-02-03T12:55:57;6.80;;;1.60;;
62582;SDS011;48641;51.676;5.808;2023-02-03T12:58:42;11.43;;;2.90;;
62582;SDS011;48641;51.676;5.808;2023-02-03T13:01:20;11.10;;;2.00;;
62582;SDS011;48641;51.676;5.808;2023-02-03T13:03:59;8.30;;;1.90;;
62582;SDS011;48641;51.676;5.808;2023-02-03T13:06:51;10.02;;;2.10;;
62582;SDS011;48641;51.676;5.808;2023-02-03T13:12:10;8.57;;;2.00;;
62582;SDS011;48641;51.676;5.808;2023-02-03T13:14:50;8.50;;;2.10;;
62582;SDS011;48641;51.676;5.808;2023-02-03T13:17:56;7.82;;;2.53;;
62582;SDS011;48641;51.676;5.808;2023-02-03T13:20:27;8.15;;;1.85;;
62582;SDS011;48641;51.676;5.808;2023-02-03T13:22:55;10.60;;;2.07;;
62582;SDS011;48641;51.676;5.808;2023-02-03T13:25:26;9.45;;;2.22;;
62582;SDS011;48641;51.676;5.808;2023-02-03T13:28:27;8.07;;;2.78;;
62582;SDS011;48641;51.676;5.808;2023-02-03T13:37:11;7.25;;;2.10;;
62582;SDS011;48641;51.676;5.808;2023-02-03T13:39:50;6.47;;;2.08;;
62582;SDS011;48641;51.676;5.808;2023-02-03T13:42:24;7.72;;;2.20;;
62582;SDS011;48641;51.676;5.808;2023-02-03T13:44:52;6.00;;;2.22;;
62582;SDS011;48641;51.676;5.808;2023-02-03T13:47:22;8.13;;;2.20;;
62582;SDS011;48641;51.676;5.808;2023-02-03T13:50:02;8.18;;;2.30;;
62582;SDS011;48641;51.676;5.808;2023-02-03T13:52:35;9.00;;;2.45;;
62582;SDS011;48641;51.676;5.808;2023-02-03T13:55:02;6.75;;;1.95;;
62582;SDS011;48641;51.676;5.808;2023-02-03T13:57:36;7.82;;;2.20;;
62582;SDS011;48641;51.676;5.808;2023-02-03T14:00:57;6.45;;;1.98;;
62582;SDS011;48641;51.676;5.808;2023-02-03T14:03:14;6.40;;;2.15;;
62582;SDS011;48641;51.676;5.808;2023-02-03T14:05:49;5.95;;;2.08;;
62582;SDS011;48641;51.676;5.808;2023-02-03T14:16:43;5.82;;;2.20;;
62582;SDS011;48641;51.676;5.808;2023-02-03T14:19:57;7.32;;;2.40;;
62582;SDS011;48641;51.676;5.808;2023-02-03T14:24:39;6.78;;;2.13;;
62582;SDS011;48641;51.676;5.808;2023-02-03T14:29:44;7.38;;;2.13;;
62582;SDS011;48641;51.676;5.808;2023-02-03T14:32:12;7.75;;;2.47;;
62582;SDS011;48641;51.676;5.808;2023-02-03T14:34:45;5.13;;;1.90;;
62582;SDS011;48641;51.676;5.808;2023-02-03T14:37:23;6.40;;;2.30;;
62582;SDS011;48641;51.676;5.808;2023-02-03T14:42:44;6.38;;;2.10;;
62582;SDS011;48641;51.676;5.808;2023-02-03T14:48:08;4.60;;;2.15;;
62582;SDS011;48641;51.676;5.808;2023-02-03T14:53:38;7.95;;;2.40;;
62582;SDS011;48641;51.676;5.808;2023-02-03T14:56:21;5.30;;;2.15;;
62582;SDS011;48641;51.676;5.808;2023-02-03T14:59:30;5.13;;;1.90;;
62582;SDS011;48641;51.676;5.808;2023-02-03T15:04:32;6.78;;;2.38;;
62582;SDS011;48641;51.676;5.808;2023-02-03T15:06:58;4.72;;;2.17;;
62582;SDS011;48641;51.676;5.808;2023-02-03T15:11:58;7.43;;;2.20;;
62582;SDS011;48641;51.676;5.808;2023-02-03T15:14:25;7.95;;;2.83;;
62582;SDS011;48641;51.676;5.808;2023-02-03T15:17:01;7.72;;;2.65;;
62582;SDS011;48641;51.676;5.808;2023-02-03T15:19:37;6.07;;;2.50;;
62582;SDS011;48641;51.676;5.808;2023-02-03T15:22:20;7.35;;;2.70;;
62582;SDS011;48641;51.676;5.808;2023-02-03T15:24:56;6.80;;;2.50;;
62582;SDS011;48641;51.676;5.808;2023-02-03T15:27:28;6.63;;;2.50;;
62582;SDS011;48641;51.676;5.808;2023-02-03T15:29:55;7.43;;;2.50;;
62582;SDS011;48641;51.676;5.808;2023-02-03T15:32:24;6.57;;;2.78;;
62582;SDS011;48641;51.676;5.808;2023-02-03T15:34:56;7.03;;;2.72;;
62582;SDS011;48641;51.676;5.808;2023-02-03T15:40:01;5.53;;;2.30;;
62582;SDS011;48641;51.676;5.808;2023-02-03T15:42:53;6.35;;;2.38;;
62582;SDS011;48641;51.676;5.808;2023-02-03T15:47:54;6.07;;;2.30;;
62582;SDS011;48641;51.676;5.808;2023-02-03T15:50:31;8.02;;;2.53;;
62582;SDS011;48641;51.676;5.808;2023-02-03T15:53:04;6.40;;;2.25;;
62582;SDS011;48641;51.676;5.808;2023-02-03T15:55:42;8.23;;;2.40;;
62582;SDS011;48641;51.676;5.808;2023-02-03T15:58:29;16.75;;;3.72;;
62582;SDS011;48641;51.676;5.808;2023-02-03T16:01:06;47.60;;;6.40;;
62582;SDS011;48641;51.676;5.808;2023-02-03T16:03:48;31.90;;;5.60;;
62582;SDS011;48641;51.676;5.808;2023-02-03T16:08:47;23.80;;;4.97;;
62582;SDS011;48641;51.676;5.808;2023-02-03T16:11:34;22.35;;;4.93;;
62582;SDS011;48641;51.676;5.808;2023-02-03T16:14:02;21.02;;;4.53;;
62582;SDS011;48641;51.676;5.808;2023-02-03T16:19:10;27.52;;;4.68;;
62582;SDS011;48641;51.676;5.808;2023-02-03T16:33:04;17.85;;;5.72;;
62582;SDS011;48641;51.676;5.808;2023-02-03T16:35:56;15.68;;;5.60;;
62582;SDS011;48641;51.676;5.808;2023-02-03T16:38:47;13.60;;;4.75;;
62582;SDS011;48641;51.676;5.808;2023-02-03T16:41:32;21.83;;;5.68;;
62582;SDS011;48641;51.676;5.808;2023-02-03T16:44:16;19.67;;;5.40;;
62582;SDS011;48641;51.676;5.808;2023-02-03T16:47:01;14.88;;;4.57;;
62582;SDS011;48641;51.676;5.808;2023-02-03T16:49:46;14.38;;;4.97;;
62582;SDS011;48641;51.676;5.808;2023-02-03T16:52:30;15.50;;;4.70;;
62582;SDS011;48641;51.676;5.808;2023-02-03T16:54:56;16.88;;;4.70;;
62582;SDS011;48641;51.676;5.808;2023-02-03T16:57:22;13.32;;;4.82;;
62582;SDS011;48641;51.676;5.808;2023-02-03T16:59:47;17.92;;;7.28;;
62582;SDS011;48641;51.676;5.808;2023-02-03T17:02:13;14.90;;;5.50;;
62582;SDS011;48641;51.676;5.808;2023-02-03T17:04:39;17.17;;;5.28;;
62582;SDS011;48641;51.676;5.808;2023-02-03T17:07:04;16.35;;;5.25;;
62582;SDS011;48641;51.676;5.808;2023-02-03T17:09:30;19.08;;;4.88;;
62582;SDS011;48641;51.676;5.808;2023-02-03T17:12:02;13.18;;;5.43;;
62582;SDS011;48641;51.676;5.808;2023-02-03T17:14:28;12.70;;;4.82;;
62582;SDS011;48641;51.676;5.808;2023-02-03T17:16:56;12.30;;;5.72;;
62582;SDS011;48641;51.676;5.808;2023-02-03T17:19:22;12.30;;;5.05;;
62582;SDS011;48641;51.676;5.808;2023-02-03T17:21:48;12.95;;;4.63;;
62582;SDS011;48641;51.676;5.808;2023-02-03T17:24:15;13.43;;;5.32;;
62582;SDS011;48641;51.676;5.808;2023-02-03T17:26:40;13.43;;;4.68;;
62582;SDS011;48641;51.676;5.808;2023-02-03T17:29:08;12.30;;;4.28;;
62582;SDS011;48641;51.676;5.808;2023-02-03T17:31:34;13.40;;;4.65;;
62582;SDS011;48641;51.676;5.808;2023-02-03T17:33:59;10.85;;;4.72;;
62582;SDS011;48641;51.676;5.808;2023-02-03T17:36:25;11.88;;;4.72;;
62582;SDS011;48641;51.676;5.808;2023-02-03T17:38:52;17.48;;;4.88;;